createdAt,value
2019-06-26T00:00:55.914Z,75.24
2019-06-26T00:01:55.923Z,74.84
2019-06-26T00:02:55.895Z,74.84
2019-06-26T00:03:55.880Z,75.34
2019-06-26T00:04:55.875Z,74.94
2019-06-26T00:05:55.858Z,75.34
2019-06-26T00:06:55.931Z,75.54
2019-06-26T00:07:55.856Z,75.48
2019-06-26T00:08:55.831Z,75.07
2019-06-26T00:09:55.815Z,75.48
2019-06-26T00:10:55.799Z,75.97
2019-06-26T00:11:55.794Z,75.74
2019-06-26T00:12:55.784Z,75.64
2019-06-26T00:13:55.790Z,75.94
2019-06-26T00:14:55.757Z,75.64
2019-06-26T00:15:55.812Z,75.24
2019-06-26T00:16:55.762Z,75.34
2019-06-26T00:17:55.725Z,74.84
2019-06-26T00:18:55.710Z,74.74
2019-06-26T00:19:55.720Z,75.24
2019-06-26T00:20:55.685Z,75.24
2019-06-26T00:21:55.679Z,74.24
2019-06-26T00:22:55.663Z,74.54
2019-06-26T00:23:55.652Z,74.44
2019-06-26T00:24:55.637Z,75.44
2019-06-26T00:25:55.643Z,75.07
2019-06-26T00:26:55.618Z,75.37
2019-06-26T00:27:55.603Z,75.34
2019-06-26T00:28:55.593Z,75.44
2019-06-26T00:29:55.583Z,75.37
2019-06-26T00:30:55.579Z,74.48
2019-06-26T00:31:55.575Z,75.18
2019-06-26T00:32:55.554Z,74.68
2019-06-26T00:33:55.556Z,75.18
2019-06-26T00:34:55.542Z,75.18
2019-06-26T00:35:55.517Z,75.48
2019-06-26T00:36:55.502Z,75.07
2019-06-26T00:37:55.510Z,75.31
2019-06-26T00:38:55.484Z,75.78
2019-06-26T00:39:55.468Z,75.81
2019-06-26T00:40:55.455Z,75.61
2019-06-26T00:41:55.452Z,75.21
2019-06-26T00:42:55.440Z,75.61
2019-06-26T00:43:55.437Z,75.67
2019-06-26T00:44:55.418Z,74.91
2019-06-26T00:45:55.397Z,76.11
2019-06-26T00:46:55.392Z,76.01
2019-06-26T00:47:55.375Z,75.61
2019-06-26T00:48:55.363Z,76.21
2019-06-26T00:49:55.392Z,76.61
2019-06-26T00:50:55.338Z,76.21
2019-06-26T00:51:55.329Z,76.71
2019-06-26T00:52:55.319Z,76.61
2019-06-26T00:53:55.308Z,76.01
2019-06-26T00:54:55.295Z,76.41
2019-06-26T00:55:55.366Z,76.61
2019-06-26T00:56:55.271Z,76.41
2019-06-26T00:57:55.257Z,76.31
2019-06-26T00:58:55.263Z,77.40
2019-06-26T00:59:55.246Z,76.41
2019-06-26T01:00:55.229Z,76.31
2019-06-26T01:01:55.227Z,76.65
2019-06-26T01:02:55.204Z,76.34
2019-06-26T01:03:55.192Z,76.61
2019-06-26T01:04:55.183Z,76.61
2019-06-26T01:05:55.168Z,76.61
2019-06-26T01:06:55.159Z,77.14
2019-06-26T01:07:55.161Z,76.45
2019-06-26T01:08:55.128Z,77.34
2019-06-26T01:09:55.131Z,77.25
2019-06-26T01:10:55.107Z,77.25
2019-06-26T01:11:55.107Z,77.14
2019-06-26T01:12:55.083Z,77.25
2019-06-26T01:13:58.356Z,77.25
2019-06-26T01:14:55.064Z,77.44
2019-06-26T01:15:55.048Z,77.14
2019-06-26T01:16:55.040Z,77.14
2019-06-26T01:17:55.029Z,77.25
2019-06-26T01:18:55.020Z,77.55
2019-06-26T01:19:55.048Z,77.34
2019-06-26T01:20:54.998Z,77.14
2019-06-26T01:21:54.984Z,77.64
2019-06-26T01:22:54.973Z,77.64
2019-06-26T01:23:54.958Z,77.25
2019-06-26T01:24:54.946Z,77.14
2019-06-26T01:25:54.948Z,77.34
2019-06-26T01:26:54.923Z,77.14
2019-06-26T01:27:54.914Z,77.64
2019-06-26T01:28:54.898Z,77.34
2019-06-26T01:29:54.891Z,77.14
2019-06-26T01:30:54.876Z,77.34
2019-06-26T01:31:54.884Z,77.84
2019-06-26T01:32:54.858Z,77.44
2019-06-26T01:33:54.838Z,77.55
2019-06-26T01:34:54.828Z,78.04
2019-06-26T01:35:54.824Z,78.44
2019-06-26T01:36:54.805Z,77.84
2019-06-26T01:37:54.807Z,78.14
2019-06-26T01:38:54.786Z,78.14
2019-06-26T01:39:54.777Z,77.94
2019-06-26T01:40:54.764Z,78.04
2019-06-26T01:41:54.768Z,78.54
2019-06-26T01:42:54.738Z,78.38
2019-06-26T01:43:54.742Z,77.98
2019-06-26T01:44:54.714Z,79.08
2019-06-26T01:45:54.702Z,78.98
2019-06-26T01:46:54.692Z,78.88
2019-06-26T01:47:54.684Z,78.78
2019-06-26T01:48:54.664Z,79.58
2019-06-26T01:49:54.672Z,78.78
2019-06-26T01:50:54.645Z,79.88
2019-06-26T01:51:54.638Z,79.97
2019-06-26T01:52:54.622Z,80.18
2019-06-26T01:53:54.607Z,79.68
2019-06-26T01:54:54.597Z,79.52
2019-06-26T01:55:54.630Z,79.58
2019-06-26T01:56:54.575Z,80.21
2019-06-26T01:57:54.561Z,80.27
2019-06-26T01:58:54.562Z,80.51
2019-06-26T01:59:54.546Z,80.62
2019-06-26T02:00:54.534Z,80.47
2019-06-26T02:01:54.532Z,80.91
2019-06-26T02:02:54.503Z,81.12
2019-06-26T02:03:54.505Z,81.07
2019-06-26T02:04:54.486Z,80.51
2019-06-26T02:05:54.474Z,81.61
2019-06-26T02:06:54.459Z,81.21
2019-06-26T02:07:54.473Z,81.41
2019-06-26T02:08:54.435Z,81.41
2019-06-26T02:09:54.477Z,81.71
2019-06-26T02:10:54.415Z,81.41
2019-06-26T02:11:54.402Z,81.71
2019-06-26T02:12:54.390Z,81.61
2019-06-26T02:13:54.394Z,81.01
2019-06-26T02:14:54.368Z,81.51
2019-06-26T02:15:54.359Z,81.81
2019-06-26T02:16:54.342Z,82.11
2019-06-26T02:17:54.329Z,81.51
2019-06-26T02:18:54.318Z,81.41
2019-06-26T02:19:54.324Z,82.51
2019-06-26T02:20:54.331Z,82.01
2019-06-26T02:21:54.284Z,81.71
2019-06-26T02:22:54.280Z,82.31
2019-06-26T02:23:54.269Z,81.61
2019-06-26T02:24:54.264Z,83.01
2019-06-26T02:25:54.256Z,82.31
2019-06-26T02:26:54.227Z,82.41
2019-06-26T02:27:54.211Z,82.61
2019-06-26T02:28:54.202Z,82.71
2019-06-26T02:29:54.191Z,82.41
2019-06-26T02:30:54.182Z,82.51
2019-06-26T02:31:54.178Z,82.91
2019-06-26T02:32:54.160Z,82.65
2019-06-26T02:33:54.147Z,82.61
2019-06-26T02:34:54.133Z,82.41
2019-06-26T02:35:54.125Z,82.61
2019-06-26T02:36:54.113Z,83.01
2019-06-26T02:37:54.110Z,82.15
2019-06-26T02:38:54.086Z,82.95
2019-06-26T02:39:54.071Z,83.25
2019-06-26T02:40:54.063Z,82.85
2019-06-26T02:41:54.048Z,83.65
2019-06-26T02:42:54.036Z,84.25
2019-06-26T02:43:54.043Z,84.25
2019-06-26T02:44:54.667Z,83.95
2019-06-26T02:45:54.037Z,83.95
2019-06-26T02:46:53.999Z,84.55
2019-06-26T02:47:53.980Z,83.95
2019-06-26T02:48:53.988Z,84.25
2019-06-26T02:49:53.975Z,84.35
2019-06-26T02:50:53.946Z,83.85
2019-06-26T02:51:53.937Z,84.35
2019-06-26T02:52:53.926Z,84.65
2019-06-26T02:53:53.911Z,84.59
2019-06-26T02:54:53.902Z,84.89
2019-06-26T02:55:53.929Z,84.69
2019-06-26T02:56:53.873Z,84.59
2019-06-26T02:57:53.867Z,84.79
2019-06-26T02:58:53.850Z,84.89
2019-06-26T02:59:53.845Z,86.19
2019-06-26T03:00:53.832Z,85.65
2019-06-26T03:01:53.868Z,85.19
2019-06-26T03:02:53.813Z,85.99
2019-06-26T03:03:53.798Z,85.95
2019-06-26T03:04:53.784Z,86.05
2019-06-26T03:05:53.772Z,85.55
2019-06-26T03:06:53.759Z,85.89
2019-06-26T03:07:53.777Z,85.79
2019-06-26T03:08:53.739Z,85.69
2019-06-26T03:09:53.731Z,85.89
2019-06-26T03:10:53.720Z,85.79
2019-06-26T03:11:53.707Z,84.99
2019-06-26T03:12:53.691Z,84.99
2019-06-26T03:13:53.698Z,85.49
2019-06-26T03:15:07.846Z,84.99
2019-06-26T03:15:54.656Z,84.99
2019-06-26T03:16:53.645Z,84.89
2019-06-26T03:17:55.649Z,84.33
2019-06-26T03:18:53.626Z,84.93
2019-06-26T03:19:53.632Z,84.93
2019-06-26T03:20:53.610Z,84.83
2019-06-26T03:21:53.598Z,85.23
2019-06-26T03:22:53.580Z,85.23
2019-06-26T03:23:53.570Z,85.73
2019-06-26T03:24:53.558Z,85.73
2019-06-26T03:25:53.563Z,86.43
2019-06-26T03:26:53.535Z,87.03
2019-06-26T03:27:53.527Z,87.13
2019-06-26T03:28:53.512Z,87.03
2019-06-26T03:29:53.500Z,86.93
2019-06-26T03:30:53.492Z,86.43
2019-06-26T03:31:53.498Z,86.63
2019-06-26T03:32:53.476Z,86.83
2019-06-26T03:33:53.457Z,87.63
2019-06-26T03:34:53.444Z,87.83
2019-06-26T03:35:53.430Z,88.33
2019-06-26T03:36:53.419Z,88.29
2019-06-26T03:37:53.425Z,88.09
2019-06-26T03:38:53.414Z,88.09
2019-06-26T03:39:53.385Z,88.29
2019-06-26T03:40:53.373Z,88.59
2019-06-26T03:41:53.363Z,87.89
2019-06-26T03:42:53.356Z,87.89
2019-06-26T03:43:53.359Z,88.45
2019-06-26T03:44:53.328Z,88.15
2019-06-26T03:45:53.320Z,88.39
2019-06-26T03:46:53.362Z,88.65
2019-06-26T03:47:53.301Z,88.09
2019-06-26T03:48:53.289Z,88.15
2019-06-26T03:49:53.301Z,87.75
2019-06-26T03:50:53.266Z,88.05
2019-06-26T03:51:53.251Z,88.05
2019-06-26T03:52:53.252Z,87.65
2019-06-26T03:53:53.227Z,87.85
2019-06-26T03:54:53.219Z,87.95
2019-06-26T03:55:53.222Z,87.95
2019-06-26T03:56:53.202Z,88.01
2019-06-26T03:57:53.197Z,87.85
2019-06-26T03:58:53.181Z,87.91
2019-06-26T03:59:53.163Z,87.91
2019-06-26T04:00:53.149Z,88.01
2019-06-26T04:01:53.157Z,87.30
2019-06-26T04:02:53.136Z,87.61
2019-06-26T04:03:53.120Z,87.61
2019-06-26T04:04:53.110Z,87.30
2019-06-26T04:05:53.096Z,87.30
2019-06-26T04:06:53.102Z,87.81
2019-06-26T04:07:53.093Z,87.91
2019-06-26T04:08:53.064Z,87.61
2019-06-26T04:09:53.053Z,87.51
2019-06-26T04:10:53.044Z,87.21
2019-06-26T04:11:53.033Z,87.11
2019-06-26T04:12:53.019Z,87.07
2019-06-26T04:13:53.020Z,87.87
2019-06-26T04:14:53.002Z,87.16
2019-06-26T04:15:52.986Z,87.37
2019-06-26T04:16:52.972Z,87.46
2019-06-26T04:17:52.965Z,87.57
2019-06-26T04:18:52.955Z,87.07
2019-06-26T04:19:52.965Z,86.93
2019-06-26T04:20:52.925Z,86.19
2019-06-26T04:21:52.922Z,85.78
2019-06-26T04:22:52.905Z,85.25
2019-06-26T04:23:52.889Z,84.55
2019-06-26T04:24:52.878Z,84.45
2019-06-26T04:25:52.897Z,84.01
2019-06-26T04:26:52.852Z,84.21
2019-06-26T04:27:52.861Z,82.84
2019-06-26T04:28:52.832Z,81.54
2019-06-26T04:29:52.818Z,80.71
2019-06-26T04:30:52.812Z,79.97
2019-06-26T04:31:52.818Z,79.67
2019-06-26T04:32:52.790Z,79.24
2019-06-26T04:33:52.774Z,78.20
2019-06-26T04:34:54.540Z,77.61
2019-06-26T04:35:52.757Z,77.41
2019-06-26T04:36:52.764Z,77.17
2019-06-26T04:37:52.743Z,76.64
2019-06-26T04:38:52.718Z,76.25
2019-06-26T04:39:52.707Z,76.25
2019-06-26T04:40:52.695Z,76.01
2019-06-26T04:41:52.697Z,75.01
2019-06-26T04:42:52.678Z,74.68
2019-06-26T04:43:52.683Z,74.08
2019-06-26T04:44:52.662Z,73.99
2019-06-26T04:45:58.029Z,73.99
2019-06-26T04:46:53.628Z,74.29
2019-06-26T04:47:52.619Z,74.74
2019-06-26T04:48:52.607Z,73.95
2019-06-26T04:49:52.618Z,72.83
2019-06-26T04:50:52.588Z,73.42
2019-06-26T04:51:52.582Z,73.12
2019-06-26T04:52:52.563Z,72.30
2019-06-26T04:53:55.628Z,72.36
2019-06-26T04:54:52.536Z,71.27
2019-06-26T04:55:52.543Z,71.23
2019-06-26T04:56:52.524Z,70.84
2019-06-26T04:57:52.510Z,70.74
2019-06-26T04:58:52.492Z,70.54
2019-06-26T04:59:52.498Z,70.05
2019-06-26T05:00:52.633Z,70.48
2019-06-26T05:01:52.486Z,71.04
2019-06-26T05:02:52.453Z,70.71
2019-06-26T05:03:52.443Z,69.62
2019-06-26T05:04:52.431Z,70.12
2019-06-26T05:05:52.421Z,70.01
2019-06-26T05:06:52.408Z,69.92
2019-06-26T05:07:53.829Z,69.89
2019-06-26T05:08:52.465Z,69.68
2019-06-26T05:09:52.381Z,68.17
2019-06-26T05:10:52.368Z,67.77
2019-06-26T05:11:52.354Z,67.77
2019-06-26T05:12:52.348Z,68.17
2019-06-26T05:13:52.364Z,67.44
2019-06-26T05:14:52.319Z,67.44
2019-06-26T05:15:52.308Z,66.95
2019-06-26T05:16:52.298Z,67.35
2019-06-26T05:17:52.292Z,68.37
2019-06-26T05:18:52.278Z,67.58
2019-06-26T05:19:52.281Z,67.25
2019-06-26T05:20:52.258Z,67.11
2019-06-26T05:21:52.242Z,67.25
2019-06-26T05:22:52.237Z,67.81
2019-06-26T05:23:52.223Z,67.15
2019-06-26T05:24:52.215Z,66.66
2019-06-26T05:25:52.212Z,67.02
2019-06-26T05:26:52.190Z,66.92
2019-06-26T05:27:52.185Z,66.23
2019-06-26T05:28:52.166Z,66.30
2019-06-26T05:29:54.397Z,64.59
2019-06-26T05:30:52.149Z,64.78
2019-06-26T05:31:52.183Z,65.34
2019-06-26T05:32:52.142Z,64.42
2019-06-26T05:33:52.108Z,64.42
2019-06-26T05:34:52.547Z,63.60
2019-06-26T05:35:52.090Z,64.36
2019-06-26T05:36:52.091Z,64.98
2019-06-26T05:37:52.084Z,65.25
2019-06-26T05:38:52.067Z,65.90
2019-06-26T05:39:54.726Z,65.80
2019-06-26T05:40:52.040Z,64.98
2019-06-26T05:41:52.045Z,64.75
2019-06-26T05:42:52.032Z,64.03
2019-06-26T05:43:52.115Z,64.46
2019-06-26T05:44:51.993Z,64.46
2019-06-26T05:45:51.990Z,64.26
2019-06-26T05:46:51.989Z,64.78
2019-06-26T05:47:51.960Z,64.69
2019-06-26T05:48:51.966Z,64.00
2019-06-26T05:49:51.955Z,62.88
2019-06-26T05:50:51.978Z,62.82
2019-06-26T05:51:51.951Z,63.67
2019-06-26T05:52:51.908Z,64.09
2019-06-26T05:53:51.905Z,64.00
2019-06-26T05:54:51.898Z,64.49
2019-06-26T05:55:52.893Z,64.39
2019-06-26T05:56:51.941Z,63.87
2019-06-26T05:57:51.859Z,63.02
2019-06-26T05:58:51.851Z,64.88
2019-06-26T05:59:51.852Z,63.87
2019-06-26T06:00:51.860Z,64.03
2019-06-26T06:01:51.843Z,63.41
2019-06-26T06:02:53.966Z,62.46
2019-06-26T06:03:51.798Z,61.48
2019-06-26T06:04:51.805Z,61.71
2019-06-26T06:05:51.804Z,61.38
2019-06-26T06:06:51.771Z,61.29
2019-06-26T06:07:51.773Z,61.97
2019-06-26T06:08:51.739Z,61.71
2019-06-26T06:09:51.739Z,61.61
2019-06-26T06:10:51.729Z,60.60
2019-06-26T06:11:51.707Z,61.29
2019-06-26T06:12:51.709Z,60.39
2019-06-26T06:13:51.723Z,61.38
2019-06-26T06:14:51.723Z,62.10
2019-06-26T06:15:51.672Z,62.69
2019-06-26T06:16:51.676Z,61.87
2019-06-26T06:17:51.671Z,61.29
2019-06-26T06:18:51.647Z,60.79
2019-06-26T06:19:51.740Z,60.79
2019-06-26T06:20:51.691Z,60.69
2019-06-26T06:21:51.608Z,61.29
2019-06-26T06:22:51.592Z,60.37
2019-06-26T06:23:51.617Z,60.33
2019-06-26T06:24:51.577Z,61.34
2019-06-26T06:25:51.671Z,62.03
2019-06-26T06:26:51.603Z,61.54
2019-06-26T06:27:51.569Z,60.99
2019-06-26T06:28:51.599Z,60.00
2019-06-26T06:29:51.534Z,59.28
2019-06-26T06:30:51.543Z,59.36
2019-06-26T06:31:51.549Z,61.51
2019-06-26T06:32:51.550Z,61.21
2019-06-26T06:33:51.522Z,60.47
2019-06-26T06:34:51.476Z,59.92
2019-06-26T06:35:51.458Z,57.73
2019-06-26T06:36:51.455Z,57.26
2019-06-26T06:37:51.482Z,58.32
2019-06-26T06:38:51.537Z,59.30
2019-06-26T06:39:51.424Z,57.11
2019-06-26T06:40:51.410Z,57.92
2019-06-26T06:41:51.430Z,57.73
2019-06-26T06:42:51.399Z,58.09
2019-06-26T06:43:51.472Z,57.40
2019-06-26T06:44:51.395Z,56.92
2019-06-26T06:45:51.365Z,57.43
2019-06-26T06:47:03.219Z,58.32
2019-06-26T06:47:52.356Z,57.77
2019-06-26T06:48:51.367Z,55.39
2019-06-26T06:49:51.369Z,55.39
2019-06-26T06:50:51.340Z,55.66
2019-06-26T06:51:51.305Z,55.98
2019-06-26T06:52:51.289Z,55.29
2019-06-26T06:53:51.278Z,55.58
2019-06-26T06:54:51.273Z,55.58
2019-06-26T06:55:51.310Z,55.29
2019-06-26T06:56:51.289Z,57.14
2019-06-26T06:57:51.243Z,56.62
2019-06-26T06:58:51.240Z,57.01
2019-06-26T06:59:51.226Z,56.98
2019-06-26T07:00:51.240Z,55.82
2019-06-26T07:01:51.237Z,55.21
2019-06-26T07:02:53.015Z,55.53
2019-06-26T07:03:51.190Z,55.28
2019-06-26T07:04:51.180Z,53.59
2019-06-26T07:05:51.180Z,53.15
2019-06-26T07:06:51.195Z,51.34
2019-06-26T07:07:51.541Z,52.08
2019-06-26T07:08:51.146Z,52.69
2019-06-26T07:09:51.129Z,52.78
2019-06-26T07:10:51.120Z,52.81
2019-06-26T07:11:51.108Z,53.17
2019-06-26T07:12:51.102Z,53.37
2019-06-26T07:13:51.119Z,52.15
2019-06-26T07:14:51.102Z,52.80
2019-06-26T07:15:51.066Z,50.14
2019-06-26T07:16:51.061Z,51.31
2019-06-26T07:17:51.090Z,50.21
2019-06-26T07:18:51.064Z,52.00
2019-06-26T07:19:52.954Z,51.09
2019-06-26T07:20:51.018Z,50.12
2019-06-26T07:21:51.015Z,50.51
2019-06-26T07:22:51.008Z,49.90
2019-06-26T07:23:51.055Z,49.99
2019-06-26T07:24:51.015Z,49.78
2019-06-26T07:25:50.982Z,48.51
2019-06-26T07:26:51.939Z,50.21
2019-06-26T07:27:50.958Z,50.51
2019-06-26T07:28:50.999Z,51.27
2019-06-26T07:29:50.948Z,52.37
2019-06-26T07:30:50.951Z,52.44
2019-06-26T07:31:50.923Z,51.70
2019-06-26T07:32:50.914Z,52.02
2019-06-26T07:33:50.908Z,51.43
2019-06-26T07:34:50.922Z,51.86
2019-06-26T07:35:50.892Z,52.15
2019-06-26T07:36:50.901Z,52.51
2019-06-26T07:37:50.920Z,51.82
2019-06-26T07:38:50.877Z,50.16
2019-06-26T07:39:50.851Z,51.43
2019-06-26T07:40:50.843Z,51.02
2019-06-26T07:41:50.865Z,50.99
2019-06-26T07:42:50.853Z,50.43
2019-06-26T07:43:50.824Z,51.73
2019-06-26T07:44:50.814Z,50.90
2019-06-26T07:45:50.799Z,50.21
2019-06-26T07:46:50.784Z,50.41
2019-06-26T07:47:50.794Z,49.90
2019-06-26T07:48:50.791Z,49.51
2019-06-26T07:49:50.763Z,50.51
2019-06-26T07:50:50.751Z,49.63
2019-06-26T07:51:50.753Z,50.21
2019-06-26T07:52:50.819Z,49.83
2019-06-26T07:53:50.756Z,50.78
2019-06-26T07:54:50.741Z,49.93
2019-06-26T07:55:50.704Z,50.12
2019-06-26T07:56:50.720Z,52.02
2019-06-26T07:57:50.724Z,51.41
2019-06-26T07:58:50.687Z,50.99
2019-06-26T07:59:50.669Z,49.22
2019-06-26T08:00:50.681Z,49.19
2019-06-26T08:01:50.649Z,48.58
2019-06-26T08:02:50.637Z,48.95
2019-06-26T08:03:50.639Z,46.88
2019-06-26T08:04:50.622Z,46.86
2019-06-26T08:05:50.614Z,46.67
2019-06-26T08:06:50.637Z,47.08
2019-06-26T08:07:50.671Z,46.96
2019-06-26T08:08:50.613Z,46.15
2019-06-26T08:09:50.612Z,46.74
2019-06-26T08:10:50.606Z,46.94
2019-06-26T08:11:50.568Z,46.74
2019-06-26T08:12:50.567Z,46.45
2019-06-26T08:13:50.544Z,47.27
2019-06-26T08:14:50.540Z,48.36
2019-06-26T08:15:50.535Z,47.90
2019-06-26T08:16:50.517Z,48.32
2019-06-26T08:18:00.561Z,48.78
2019-06-26T08:18:51.523Z,47.90
2019-06-26T08:19:50.492Z,49.00
2019-06-26T08:21:10.647Z,50.48
2019-06-26T08:21:51.481Z,48.90
2019-06-26T08:22:50.469Z,48.39
2019-06-26T08:23:50.488Z,47.90
2019-06-26T08:24:50.468Z,48.80
2019-06-26T08:25:50.445Z,48.54
2019-06-26T08:26:50.454Z,49.88
2019-06-26T08:27:50.430Z,51.20
2019-06-26T08:28:50.416Z,50.00
2019-06-26T08:29:50.428Z,51.53
2019-06-26T08:30:50.418Z,49.73
2019-06-26T08:31:50.417Z,49.71
2019-06-26T08:32:50.424Z,48.61
2019-06-26T08:33:50.386Z,48.34
2019-06-26T08:34:50.379Z,48.32
2019-06-26T08:35:50.380Z,48.19
2019-06-26T08:36:50.403Z,46.93
2019-06-26T08:37:50.344Z,48.17
2019-06-26T08:38:50.351Z,47.10
2019-06-26T08:39:50.334Z,46.78
2019-06-26T08:40:50.319Z,46.98
2019-06-26T08:41:50.324Z,47.80
2019-06-26T08:42:50.322Z,48.07
2019-06-26T08:43:50.299Z,47.17
2019-06-26T08:44:50.288Z,46.74
2019-06-26T08:45:50.286Z,46.11
2019-06-26T08:46:50.275Z,48.63
2019-06-26T08:47:50.261Z,48.17
2019-06-26T08:48:52.058Z,48.19
2019-06-26T08:49:50.247Z,49.02
2019-06-26T08:50:50.241Z,48.12
2019-06-26T08:51:50.229Z,48.00
2019-06-26T08:52:50.246Z,46.91
2019-06-26T08:53:50.224Z,46.98
2019-06-26T08:54:50.242Z,46.98
2019-06-26T08:55:50.200Z,47.52
2019-06-26T08:56:50.187Z,49.02
2019-06-26T08:57:50.184Z,48.12
2019-06-26T08:58:50.175Z,48.32
2019-06-26T08:59:50.174Z,48.00
2019-06-26T09:00:50.190Z,47.47
2019-06-26T09:01:50.155Z,47.86
2019-06-26T09:02:50.141Z,46.96
2019-06-26T09:03:50.139Z,48.32
2019-06-26T09:04:50.127Z,49.90
2019-06-26T09:05:50.120Z,48.54
2019-06-26T09:06:50.147Z,49.71
2019-06-26T09:07:50.144Z,47.71
2019-06-26T09:08:50.100Z,48.78
2019-06-26T09:09:50.092Z,47.30
2019-06-26T09:10:50.088Z,48.22
2019-06-26T09:11:50.071Z,48.71
2019-06-26T09:12:50.089Z,48.63
2019-06-26T09:13:50.052Z,47.83
2019-06-26T09:14:50.051Z,48.44
2019-06-26T09:15:50.319Z,49.66
2019-06-26T09:16:50.037Z,48.56
2019-06-26T09:17:50.027Z,49.51
2019-06-26T09:18:50.032Z,48.54
2019-06-26T09:19:50.007Z,49.02
2019-06-26T09:20:50.018Z,49.68
2019-06-26T09:21:50.027Z,49.05
2019-06-26T09:22:49.994Z,49.24
2019-06-26T09:23:49.979Z,49.78
2019-06-26T09:24:50.022Z,48.95
2019-06-26T09:25:49.973Z,49.39
2019-06-26T09:26:49.954Z,47.22
2019-06-26T09:27:49.954Z,48.36
2019-06-26T09:28:49.944Z,48.49
2019-06-26T09:29:49.927Z,48.51
2019-06-26T09:30:50.014Z,47.98
2019-06-26T09:31:49.919Z,46.81
2019-06-26T09:32:49.905Z,48.61
2019-06-26T09:33:49.903Z,48.51
2019-06-26T09:34:49.943Z,49.73
2019-06-26T09:35:49.895Z,49.22
2019-06-26T09:36:50.060Z,49.88
2019-06-26T09:37:49.922Z,47.66
2019-06-26T09:38:49.880Z,46.47
2019-06-26T09:39:49.877Z,46.08
2019-06-26T09:40:49.852Z,46.42
2019-06-26T09:41:49.894Z,45.65
2019-06-26T09:42:49.854Z,46.04
2019-06-26T09:43:49.842Z,46.14
2019-06-26T09:44:49.822Z,46.14
2019-06-26T09:45:49.823Z,45.72
2019-06-26T09:46:49.819Z,46.98
2019-06-26T09:47:49.811Z,46.88
2019-06-26T09:48:53.202Z,47.69
2019-06-26T09:49:49.835Z,46.67
2019-06-26T09:50:49.786Z,46.52
2019-06-26T09:51:49.807Z,46.50
2019-06-26T09:52:49.763Z,47.30
2019-06-26T09:53:49.783Z,48.80
2019-06-26T09:54:49.807Z,47.75
2019-06-26T09:55:49.746Z,48.44
2019-06-26T09:56:49.745Z,48.27
2019-06-26T09:57:49.765Z,49.78
2019-06-26T09:58:49.732Z,50.26
2019-06-26T09:59:49.742Z,48.41
2019-06-26T10:00:49.747Z,49.19
2019-06-26T10:01:49.709Z,49.95
2019-06-26T10:02:49.714Z,48.24
2019-06-26T10:03:49.728Z,48.22
2019-06-26T10:04:49.680Z,46.32
2019-06-26T10:05:49.752Z,47.61
2019-06-26T10:06:49.689Z,47.56
2019-06-26T10:07:49.736Z,48.39
2019-06-26T10:08:49.657Z,47.30
2019-06-26T10:09:51.399Z,47.88
2019-06-26T10:10:49.649Z,48.05
2019-06-26T10:11:49.644Z,46.77
2019-06-26T10:12:49.658Z,45.91
2019-06-26T10:13:49.620Z,46.01
2019-06-26T10:14:49.618Z,46.40
2019-06-26T10:15:49.610Z,47.05
2019-06-26T10:16:49.605Z,45.48
2019-06-26T10:17:49.611Z,45.38
2019-06-26T10:18:49.624Z,44.89
2019-06-26T10:19:49.583Z,46.04
2019-06-26T10:20:49.574Z,44.37
2019-06-26T10:21:49.568Z,44.65
2019-06-26T10:22:49.558Z,44.51
2019-06-26T10:23:49.551Z,43.74
2019-06-26T10:24:49.566Z,44.05
2019-06-26T10:25:49.559Z,45.69
2019-06-26T10:26:49.533Z,46.40
2019-06-26T10:27:49.542Z,46.01
2019-06-26T10:28:49.539Z,46.59
2019-06-26T10:29:49.532Z,46.81
2019-06-26T10:30:49.530Z,46.95
2019-06-26T10:31:49.497Z,48.00
2019-06-26T10:32:49.548Z,46.81
2019-06-26T10:33:49.493Z,46.08
2019-06-26T10:34:49.481Z,45.18
2019-06-26T10:35:49.472Z,46.84
2019-06-26T10:36:49.493Z,46.01
2019-06-26T10:37:49.467Z,45.62
2019-06-26T10:38:49.456Z,46.23
2019-06-26T10:39:49.447Z,46.32
2019-06-26T10:40:49.441Z,45.60
2019-06-26T10:41:49.441Z,46.40
2019-06-26T10:42:49.457Z,45.50
2019-06-26T10:43:49.416Z,45.79
2019-06-26T10:44:49.413Z,45.79
2019-06-26T10:45:49.398Z,46.69
2019-06-26T10:46:49.442Z,46.47
2019-06-26T10:47:49.387Z,45.98
2019-06-26T10:48:49.511Z,45.67
2019-06-26T10:49:49.377Z,45.57
2019-06-26T10:50:57.151Z,46.06
2019-06-26T10:51:50.385Z,44.60
2019-06-26T10:52:49.362Z,44.56
2019-06-26T10:53:49.371Z,44.73
2019-06-26T10:54:49.367Z,43.10
2019-06-26T10:55:49.338Z,43.20
2019-06-26T10:56:49.332Z,42.91
2019-06-26T10:57:49.329Z,43.08
2019-06-26T10:58:49.399Z,43.20
2019-06-26T10:59:49.307Z,42.91
2019-06-26T11:00:49.318Z,43.95
2019-06-26T11:01:49.289Z,43.26
2019-06-26T11:02:49.290Z,42.19
2019-06-26T11:03:49.292Z,40.91
2019-06-26T11:04:49.289Z,42.17
2019-06-26T11:05:49.271Z,40.99
2019-06-26T11:06:50.930Z,41.96
2019-06-26T11:07:49.245Z,41.08
2019-06-26T11:08:49.253Z,43.22
2019-06-26T11:09:49.236Z,42.64
2019-06-26T11:10:49.246Z,44.12
2019-06-26T11:11:49.227Z,44.24
2019-06-26T11:12:49.242Z,44.31
2019-06-26T11:13:49.201Z,44.29
2019-06-26T11:14:49.274Z,43.78
2019-06-26T11:15:49.195Z,43.20
2019-06-26T11:16:49.208Z,41.77
2019-06-26T11:17:49.178Z,43.10
2019-06-26T11:18:49.202Z,40.77
2019-06-26T11:19:49.173Z,42.85
2019-06-26T11:20:49.182Z,42.95
2019-06-26T11:21:49.220Z,42.95
2019-06-26T11:22:49.147Z,42.85
2019-06-26T11:23:49.132Z,43.75
2019-06-26T11:24:49.182Z,44.04
2019-06-26T11:25:49.129Z,44.31
2019-06-26T11:26:49.109Z,42.83
2019-06-26T11:27:49.118Z,42.15
2019-06-26T11:28:49.120Z,42.33
2019-06-26T11:29:49.089Z,41.06
2019-06-26T11:30:49.089Z,40.09
2019-06-26T11:31:49.076Z,40.21
2019-06-26T11:32:49.063Z,41.10
2019-06-26T11:33:49.077Z,41.24
2019-06-26T11:34:49.049Z,42.41
2019-06-26T11:35:49.036Z,42.60
2019-06-26T11:37:02.788Z,42.24
2019-06-26T11:37:50.016Z,42.72
2019-06-26T11:38:49.029Z,42.50
2019-06-26T11:39:49.019Z,41.36
2019-06-26T11:40:49.024Z,41.94
2019-06-26T11:41:48.999Z,41.11
2019-06-26T11:42:49.007Z,42.40
2019-06-26T11:43:49.008Z,43.27
2019-06-26T11:44:48.967Z,42.38
2019-06-26T11:45:48.969Z,42.91
2019-06-26T11:46:48.957Z,42.33
2019-06-26T11:47:48.943Z,42.21
2019-06-26T11:48:48.959Z,41.22
2019-06-26T11:49:59.281Z,40.56
2019-06-26T11:50:49.929Z,40.29
2019-06-26T11:51:48.951Z,40.48
2019-06-26T11:52:48.956Z,40.33
2019-06-26T11:53:48.892Z,41.09
2019-06-26T11:55:02.202Z,40.80
2019-06-26T11:55:49.885Z,39.80
2019-06-26T11:56:48.947Z,41.19
2019-06-26T11:57:48.864Z,42.24
2019-06-26T11:58:48.867Z,41.24
2019-06-26T11:59:48.847Z,39.29
2019-06-26T12:00:48.860Z,39.12
2019-06-26T12:01:48.927Z,40.85
2019-06-26T12:02:48.835Z,38.64
2019-06-26T12:03:48.816Z,38.95
2019-06-26T12:04:48.820Z,40.03
2019-06-26T12:05:48.804Z,40.25
2019-06-26T12:06:48.813Z,41.52
2019-06-26T12:07:48.780Z,41.15
2019-06-26T12:08:48.826Z,42.97
2019-06-26T12:09:48.828Z,42.61
2019-06-26T12:10:48.758Z,43.30
2019-06-26T12:11:48.740Z,43.99
2019-06-26T12:12:48.763Z,44.94
2019-06-26T12:13:48.829Z,43.08
2019-06-26T12:14:48.731Z,43.18
2019-06-26T12:15:48.706Z,41.83
2019-06-26T12:16:48.767Z,41.93
2019-06-26T12:17:48.722Z,42.74
2019-06-26T12:18:48.742Z,41.54
2019-06-26T12:19:48.668Z,40.39
2019-06-26T12:20:48.675Z,41.17
2019-06-26T12:21:48.649Z,42.85
2019-06-26T12:22:48.642Z,42.88
2019-06-26T12:23:48.637Z,44.03
2019-06-26T12:24:48.635Z,43.15
2019-06-26T12:25:48.611Z,42.85
2019-06-26T12:26:48.627Z,43.05
2019-06-26T12:27:48.591Z,42.66
2019-06-26T12:28:48.594Z,43.54
2019-06-26T12:29:48.573Z,43.34
2019-06-26T12:30:48.593Z,43.05
2019-06-26T12:31:48.560Z,42.95
2019-06-26T12:33:02.336Z,42.27
2019-06-26T12:33:49.523Z,42.27
2019-06-26T12:34:48.517Z,42.95
2019-06-26T12:35:48.572Z,43.05
2019-06-26T12:36:48.629Z,43.17
2019-06-26T12:37:48.495Z,43.31
2019-06-26T12:38:48.475Z,44.29
2019-06-26T12:39:48.470Z,43.31
2019-06-26T12:40:48.475Z,44.48
2019-06-26T12:41:48.484Z,44.78
2019-06-26T12:42:48.449Z,46.25
2019-06-26T12:43:48.430Z,44.66
2019-06-26T12:44:48.423Z,45.15
2019-06-26T12:45:48.424Z,44.56
2019-06-26T12:46:48.454Z,44.56
2019-06-26T12:47:48.392Z,44.46
2019-06-26T12:48:48.418Z,45.05
2019-06-26T12:49:48.378Z,45.25
2019-06-26T12:50:48.400Z,44.76
2019-06-26T12:51:48.346Z,45.15
2019-06-26T12:52:48.331Z,45.64